Latest Weather Observations for Yanakie

IDV60801

Issued at 4:32 pm EDT Friday 12 February 2016 (issued every 30 minutes, with the page automatically refreshed every 10 minutes)

About weather observations | Map of weather stations | Latest weather observations for VIC | Other Formats
Station Details ID: 085301 Name: YANAKIE Lat: -38.81 Lon: 146.19 Height: 13.3 m
Data from the previous 72 hours. | See also: Recent months at Yanakie
Date/Time
EDT
Temp
°C
App
Temp
°C
Dew
Point
Rel
Hum
%
Delta-T
°C
Wind Press
QNH
hPa
Press
MSL
hPa
Rain
since 9 am
mm
Dir
 
Spd
km/h
Gust
km/h
Spd
kts
Gust
kts
12/04:30pm 23.5 22.3 16.1 63 4.5 ENE 17 26 9 14 1013.0 1012.9 0.0
12/04:00pm 23.9 22.7 16.2 62 4.7 ENE 17 24 9 13 1013.4 1013.3 0.0
12/03:30pm 24.3 23.2 16.3 61 4.9 ENE 17 24 9 13 1013.5 1013.4 0.0
12/03:00pm 24.1 22.6 15.3 58 5.3 ENE 17 26 9 14 1014.0 1013.9 0.0
12/02:30pm 24.0 22.0 15.0 57 5.4 ENE 19 28 10 15 1014.4 1014.3 0.0
12/02:00pm 24.1 24.3 14.8 56 5.5 SE 7 15 4 8 1014.7 1014.6 0.0
12/01:30pm 22.8 21.9 14.9 61 4.7 SSE 13 22 7 12 1015.0 1014.9 0.0
12/01:00pm 23.1 23.5 15.4 62 4.6 SE 7 15 4 8 1015.3 1015.2 0.0
12/12:30pm 23.7 24.0 14.9 57 5.2 ENE 7 13 4 7 1015.5 1015.4 0.0
12/12:00pm 23.4 23.6 15.7 62 4.6 ESE 9 20 5 11 1015.9 1015.8 0.0
12/11:30am 22.2 22.2 15.1 64 4.2 E 9 19 5 10 1016.2 1016.1 0.0
12/11:00am 21.3 20.7 14.7 66 3.9 ENE 11 19 6 10 1016.6 1016.5 0.0
12/10:30am 21.1 20.7 15.2 69 3.5 E 11 17 6 9 1016.8 1016.7 0.0
12/10:00am 20.3 20.7 15.3 73 3.0 ENE 7 17 4 9 1016.9 1016.8 0.0
12/09:30am 20.0 20.5 16.6 81 2.1 NE 9 17 5 9 1016.8 1016.7 0.0
12/09:00am 18.4 19.4 16.9 91 0.9 N 7 13 4 7 1017.0 1016.9 0.0
12/08:30am 17.0 17.9 16.2 95 0.5 N 6 7 3 4 1016.7 1016.6 0.0
12/08:00am 14.8 15.4 14.2 96 0.3 N 4 7 2 4 1016.6 1016.5 0.0
12/07:30am 13.1 13.5 12.5 96 0.3 N 2 4 1 2 1016.5 1016.4 0.0
12/07:00am 11.4 11.6 10.6 95 0.4 CALM 0 7 0 4 1016.6 1016.5 0.0
12/06:30am 10.3 10.2 9.4 94 0.4 CALM 0 0 0 0 1016.5 1016.4 0.0
12/06:00am 11.7 12.0 10.8 94 0.5 CALM 0 0 0 0 1016.2 1016.1 0.0
12/05:30am 12.3 12.7 11.4 94 0.5 CALM 0 0 0 0 1016.1 1016.0 0.0
12/05:00am 13.2 13.9 12.1 93 0.6 CALM 0 0 0 0 1016.0 1015.9 0.0
12/04:30am 12.7 13.1 11.4 92 0.7 CALM 0 2 0 1 1016.1 1016.0 0.0
12/04:00am 12.7 12.4 11.3 91 0.7 SW 4 6 2 3 1016.3 1016.2 0.0
12/03:30am 13.0 13.4 11.4 90 0.8 CALM 0 0 0 0 1016.3 1016.2 0.0
12/03:00am 12.9 13.3 11.3 90 0.8 CALM 0 0 0 0 1016.4 1016.3 0.0
12/02:30am 12.8 13.1 10.9 88 1.0 CALM 0 0 0 0 1016.5 1016.4 0.0
12/02:00am 13.5 14.0 11.6 88 1.0 CALM 0 0 0 0 1016.8 1016.7 0.0
12/01:30am 13.9 14.5 11.8 87 1.1 CALM 0 0 0 0 1017.2 1017.1 0.0
12/01:00am 14.5 14.8 12.2 86 1.2 S 2 4 1 2 1017.4 1017.3 0.0
12/12:30am 14.0 14.3 11.0 82 1.6 CALM 0 0 0 0 1017.6 1017.5 0.0
12/12:00am 14.7 15.0 10.9 78 2.0 CALM 0 0 0 0 1017.7 1017.6 0.0
 
Date/Time
EDT
Temp
°C
App
Temp
°C
Dew
Point
Rel
Hum
%
Delta-T
°C
Wind Press
QNH
hPa
Press
MSL
hPa
Rain
since 9 am
mm
Dir
 
Spd
km/h
Gust
km/h
Spd
kts
Gust
kts
11/11:30pm 16.0 16.6 11.8 76 2.3 CALM 0 0 0 0 1018.0 1017.9 0.0
11/11:00pm 17.1 17.5 12.4 74 2.6 S 2 4 1 2 1018.1 1018.0 0.0
11/10:30pm 17.8 17.6 12.9 73 2.7 S 6 9 3 5 1018.1 1018.0 0.0
11/10:00pm 18.1 18.0 13.4 74 2.7 S 6 9 3 5 1017.9 1017.8 0.0
11/09:30pm 17.3 16.8 12.8 75 2.5 SSW 7 9 4 5 1017.4 1017.3 0.0
11/09:00pm 16.9 16.2 12.0 73 2.7 S 7 9 4 5 1017.2 1017.1 0.0
11/08:30pm 18.0 16.7 12.5 70 3.1 S 11 17 6 9 1017.1 1017.0 0.0
11/08:00pm 19.2 17.2 12.7 66 3.6 S 15 20 8 11 1016.8 1016.7 0.0
11/07:30pm 19.4 17.5 12.9 66 3.7 S 15 24 8 13 1016.4 1016.3 0.0
11/07:00pm 20.1 18.1 12.8 63 4.1 S 15 22 8 12 1015.8 1015.7 0.0
11/06:30pm 20.7 17.8 12.4 59 4.7 S 19 26 10 14 1015.9 1015.8 0.0
11/06:00pm 20.9 18.0 12.3 58 4.8 S 19 30 10 16 1015.9 1015.8 0.0
11/05:30pm 20.4 17.7 13.4 64 4.0 S 20 32 11 17 1016.0 1015.9 0.0
11/05:00pm 20.7 17.1 13.2 62 4.3 S 24 32 13 17 1015.9 1015.8 0.0
11/04:30pm 21.5 18.4 13.4 60 4.7 S 22 33 12 18 1015.7 1015.6 0.0
11/04:00pm 21.5 18.5 13.7 61 4.5 S 22 32 12 17 1015.7 1015.6 0.0
11/03:30pm 22.3 19.5 14.4 61 4.6 S 22 32 12 17 1015.7 1015.6 0.0
11/03:00pm 21.9 19.7 14.5 63 4.3 S 19 26 10 14 1016.0 1015.9 0.0
11/02:30pm 22.3 20.2 15.2 64 4.2 SSW 20 30 11 16 1016.2 1016.1 0.0
11/02:00pm 22.6 20.4 14.4 60 4.8 SSW 19 26 10 14 1016.3 1016.2 0.0
11/01:30pm 22.3 20.2 14.7 62 4.5 SSW 19 28 10 15 1016.4 1016.3 0.0
11/01:00pm 23.0 21.7 14.8 60 4.9 SSW 15 20 8 11 1016.5 1016.4 0.0
11/12:30pm 22.1 20.9 14.0 60 4.7 SSW 13 24 7 13 1016.8 1016.7 0.0
11/12:00pm 21.6 19.6 14.0 62 4.4 SW 17 24 9 13 1017.1 1017.0 0.0
11/11:30am 21.6 20.2 14.5 64 4.2 SW 15 22 8 12 1017.4 1017.3 0.0
11/11:00am 20.8 19.8 14.5 67 3.7 SW 13 22 7 12 1017.5 1017.4 0.0
11/10:30am 21.1 20.1 14.7 67 3.8 SSW 13 20 7 11 1017.5 1017.4 0.0
11/10:00am 20.1 19.5 14.5 70 3.3 SSW 11 20 6 11 1017.5 1017.4 0.0
11/09:30am 20.3 19.9 15.1 72 3.1 SW 11 17 6 9 1017.4 1017.3 0.0
11/09:00am 19.9 19.5 15.3 75 2.7 SW 11 15 6 8 1017.2 1017.1 0.0
11/08:30am 18.8 19.6 16.4 86 1.4 W 7 13 4 7 1017.0 1016.9 0.0
11/08:00am 17.6 17.9 16.1 91 0.9 W 9 11 5 6 1016.9 1016.8 0.0
11/07:30am 16.4 17.0 15.3 93 0.6 WNW 6 7 3 4 1016.7 1016.6 0.0
11/07:00am 14.8 15.2 13.8 94 0.6 WNW 4 6 2 3 1016.4 1016.3 0.0
11/06:30am 14.2 15.2 13.2 94 0.6 CALM 0 0 0 0 1016.0 1015.9 0.0
11/06:00am 14.2 15.2 13.2 94 0.6 CALM 0 2 0 1 1015.7 1015.6 0.0
11/05:30am 13.7 14.2 12.8 94 0.5 NW 2 4 1 2 1015.3 1015.2 0.0
11/05:00am 13.0 13.2 11.9 93 0.6 NW 2 4 1 2 1015.2 1015.1 0.0
11/04:30am 13.6 13.6 12.5 93 0.6 NW 4 6 2 3 1015.2 1015.1 0.0
11/04:00am 14.0 14.2 12.9 93 0.6 NW 4 6 2 3 1015.2 1015.1 0.0
11/03:30am 13.3 13.2 12.0 92 0.7 NW 4 6 2 3 1015.3 1015.2 0.0
11/03:00am 13.9 14.0 12.6 92 0.7 WNW 4 7 2 4 1015.4 1015.3 0.0
11/02:30am 14.1 13.6 12.7 91 0.8 WNW 7 9 4 5 1015.5 1015.4 0.0
11/02:00am 13.9 13.5 12.3 90 0.9 NW 6 7 3 4 1015.6 1015.5 0.0
11/01:30am 14.3 13.7 12.3 88 1.1 WNW 7 7 4 4 1015.7 1015.6 0.0
11/01:00am 16.1 15.6 13.8 86 1.3 WSW 9 13 5 7 1015.9 1015.8 0.0
11/12:30am 16.4 15.7 14.2 87 1.3 SW 11 13 6 7 1016.1 1016.0 0.0
11/12:00am 15.6 16.0 13.6 88 1.1 WNW 4 7 2 4 1016.1 1016.0 0.0
 
Date/Time
EDT
Temp
°C
App
Temp
°C
Dew
Point
Rel
Hum
%
Delta-T
°C
Wind Press
QNH
hPa
Press
MSL
hPa
Rain
since 9 am
mm
Dir
 
Spd
km/h
Gust
km/h
Spd
kts
Gust
kts
10/11:30pm 15.9 15.9 13.7 87 1.2 WNW 6 7 3 4 1016.1 1016.0 0.0
10/11:00pm 15.8 15.5 13.3 85 1.4 WNW 7 9 4 5 1016.1 1016.0 0.0
10/10:30pm 16.4 16.5 13.9 85 1.4 WNW 6 9 3 5 1016.1 1016.0 0.0
10/10:00pm 16.2 16.0 13.5 84 1.5 WNW 7 9 4 5 1016.0 1015.9 0.0
10/09:30pm 16.6 15.6 13.3 81 1.8 WSW 11 13 6 7 1015.7 1015.6 0.0
10/09:00pm 17.2 15.8 13.3 78 2.2 WSW 13 15 7 8 1015.5 1015.4 0.0
10/08:30pm 17.7 15.8 13.0 74 2.6 WSW 15 19 8 10 1015.3 1015.2 0.0
10/08:00pm 18.5 16.6 13.1 71 3.0 SW 15 20 8 11 1015.1 1015.0 0.0
10/07:30pm 19.3 17.6 13.7 70 3.2 WSW 15 20 8 11 1014.9 1014.8 0.0
10/07:00pm 19.7 17.5 13.4 67 3.6 WSW 17 22 9 12 1014.8 1014.7 0.0
10/06:30pm 19.9 17.2 13.6 67 3.6 SW 20 26 11 14 1014.6 1014.5 0.0
10/06:00pm 19.9 16.5 13.6 67 3.6 SW 24 32 13 17 1014.5 1014.4 0.0
10/05:30pm 20.6 17.2 13.8 65 3.9 SW 24 33 13 18 1014.4 1014.3 0.0
10/05:00pm 20.7 17.3 13.6 64 4.1 SW 24 32 13 17 1014.3 1014.2 0.0
10/04:30pm 20.8 17.3 13.3 62 4.3 SW 24 32 13 17 1014.3 1014.2 0.0
10/04:00pm 21.1 17.6 13.3 61 4.5 SW 24 30 13 16 1014.5 1014.4 0.0
10/03:30pm 21.1 17.6 13.5 62 4.4 SW 24 32 13 17 1014.5 1014.4 0.0
10/03:00pm 20.9 17.5 13.6 63 4.2 SW 24 33 13 18 1014.7 1014.6 0.0
10/02:30pm 21.5 18.1 13.7 61 4.5 SW 24 35 13 19 1014.9 1014.8 0.0
10/02:00pm 20.8 17.5 12.8 60 4.5 SW 22 30 12 16 1014.9 1014.8 0.0
10/01:30pm 21.0 18.0 12.7 59 4.7 SW 20 30 11 16 1015.2 1015.1 0.0
10/01:00pm 21.3 18.0 12.7 58 4.9 SW 22 30 12 16 1015.4 1015.3 0.0
10/12:30pm 21.0 17.9 13.4 62 4.4 SW 22 33 12 18 1015.6 1015.5 0.0
10/12:00pm 20.5 17.7 13.2 63 4.2 WSW 20 28 11 15 1015.7 1015.6 0.0
10/11:30am 20.6 17.1 13.3 63 4.2 WSW 24 32 13 17 1015.9 1015.8 0.0
10/11:00am 20.9 17.6 14.1 65 3.9 WSW 24 28 13 15 1015.9 1015.8 0.0
10/10:30am 20.6 18.3 14.0 66 3.8 WSW 19 24 10 13 1015.8 1015.7 0.0
10/10:00am 20.3 17.9 13.7 66 3.8 WSW 19 24 10 13 1015.7 1015.6 0.0
10/09:30am 19.4 17.7 13.6 69 3.3 W 15 20 8 11 1015.7 1015.6 0.0
10/09:00am 18.8 16.8 13.9 73 2.8 WSW 17 22 9 12 1015.8 1015.7 0.0
10/08:30am 18.5 17.4 14.2 76 2.5 W 13 17 7 9 1015.5 1015.4 0.0
10/08:00am 18.1 16.6 14.2 78 2.2 WSW 15 20 8 11 1015.2 1015.1 0.0
10/07:30am 17.9 16.6 14.8 82 1.8 WSW 15 20 8 11 1015.0 1014.9 0.0
10/07:00am 17.8 17.5 15.4 86 1.4 WSW 11 15 6 8 1014.8 1014.7 0.0
10/06:30am 17.6 17.3 15.4 87 1.3 WSW 11 15 6 8 1014.6 1014.5 0.0
10/06:00am 17.8 17.0 16.0 89 1.1 WSW 15 19 8 10 1014.5 1014.4 0.0
10/05:30am 17.6 18.0 16.3 92 0.8 WSW 9 13 5 7 1014.3 1014.2 0.0
10/05:00am 17.3 17.7 16.3 94 0.6 WSW 9 13 5 7 1014.3 1014.2 0.0
10/04:30am 17.3 17.4 16.5 95 0.5 WSW 11 15 6 8 1014.4 1014.3 0.0
10/04:00am 17.0 17.1 16.4 96 0.4 SW 11 13 6 7 1014.6 1014.5 0.0
10/03:30am 15.0 15.3 14.4 96 0.3 SW 6 7 3 4 1014.7 1014.6 0.0
10/03:00am 14.4 14.5 13.8 96 0.3 WSW 6 6 3 3 1014.8 1014.7 0.0
10/02:30am 13.1 13.1 12.3 95 0.4 SW 4 4 2 2 1015.2 1015.1 0.0
10/02:00am 13.7 14.2 12.9 95 0.4 SW 2 2 1 1 1015.4 1015.3 0.0
10/01:30am 13.5 13.6 12.6 94 0.5 SW 4 4 2 2 1015.6 1015.5 0.0
10/01:00am 13.8 14.3 12.9 94 0.5 SSW 2 4 1 2 1016.0 1015.9 0.0
10/12:30am 14.0 14.2 12.9 93 0.6 SSW 4 6 2 3 1016.3 1016.2 0.0
10/12:00am 13.7 14.1 12.4 92 0.7 S 2 6 1 3 1016.4 1016.3 0.0
 
Date/Time
EDT
Temp
°C
App
Temp
°C
Dew
Point
Rel
Hum
%
Delta-T
°C
Wind Press
QNH
hPa
Press
MSL
hPa
Rain
since 9 am
mm
Dir
 
Spd
km/h
Gust
km/h
Spd
kts
Gust
kts
09/11:30pm 14.4 15.0 13.1 92 0.7 S 2 4 1 2 1016.7 1016.6 0.0
09/11:00pm 15.0 15.3 13.5 91 0.8 S 4 6 2 3 1017.1 1017.0 0.0
09/10:30pm 15.2 15.1 13.4 89 1.0 S 6 6 3 3 1017.3 1017.2 0.0
09/10:00pm 16.2 17.2 14.2 88 1.1 SSE 2 4 1 2 1017.5 1017.4 0.0
09/09:30pm 16.8 17.5 14.6 87 1.3 S 4 6 2 3 1017.4 1017.3 0.0
09/09:00pm 17.4 17.9 15.0 86 1.4 S 6 6 3 3 1017.5 1017.4 0.0
09/08:30pm 17.9 18.7 14.8 82 1.8 SSW 4 6 2 3 1017.6 1017.5 0.0
09/08:00pm 19.0 19.4 15.3 79 2.2 SSW 7 9 4 5 1017.7 1017.6 0.0
09/07:30pm 19.8 19.9 15.4 76 2.6 SSW 9 11 5 6 1017.5 1017.4 0.0
09/07:00pm 20.0 19.6 15.2 74 2.8 SSW 11 17 6 9 1017.5 1017.4 0.0
09/06:30pm 20.7 20.0 15.5 72 3.1 SSW 13 19 7 10 1017.5 1017.4 0.0
09/06:00pm 21.1 20.3 15.2 69 3.5 SSW 13 19 7 10 1017.5 1017.4 0.0
09/05:30pm 21.2 20.2 14.6 66 3.9 SSW 13 17 7 9 1017.8 1017.7 0.0
09/05:00pm 21.4 20.1 14.8 66 3.9 SSW 15 20 8 11 1018.0 1017.9 0.0

Other Formats:

Comma delimited format used in spreadsheet applications
http://www.bom.gov.au/fwo/IDV60801/IDV60801.94911.axf

JavaScript Object Notation format (JSON) in row-major order
http://www.bom.gov.au/fwo/IDV60801/IDV60801.94911.json